Time;durP1;ratioP1;P1;durP2;ratioP2;P2;SDS_P1;SDS_P2;PMS_P1;PMS_P2;Temp;Humidity;BMP_temperature;BMP_pressure;BME280_temperature;BME280_humidity;BME280_pressure;Samples;Min_cycle;Max_cycle;Signal;HPM_P1;HPM_P2
2022/07/27 00:02:02;;;;;;;3.40;1.00;;;15.60;99.90;;;;;;5076280;28;20180;-39
2022/07/27 00:04:28;;;;;;;3.83;1.10;;;15.50;99.90;;;;;;5076294;28;20292;-41
2022/07/27 00:06:54;;;;;;;4.63;1.00;;;15.60;99.90;;;;;;5076876;28;20175;-39
2022/07/27 00:09:19;;;;;;;3.60;1.00;;;15.50;99.90;;;;;;5076101;28;20180;-41
2022/07/27 00:11:46;;;;;;;3.23;1.00;;;15.50;99.90;;;;;;5076362;28;20186;-39
2022/07/27 00:14:11;;;;;;;1.93;1.00;;;15.50;99.90;;;;;;5075419;28;20183;-40
2022/07/27 00:16:37;;;;;;;2.43;0.80;;;15.50;99.90;;;;;;5076185;28;20203;-41
2022/07/27 00:19:03;;;;;;;3.13;0.93;;;15.50;99.90;;;;;;5076453;28;20646;-39
2022/07/27 00:21:28;;;;;;;5.20;1.03;;;15.50;99.90;;;;;;5076591;28;20254;-41
2022/07/27 00:23:55;;;;;;;1.80;0.97;;;15.40;99.90;;;;;;5079772;28;20218;-41
2022/07/27 00:26:20;;;;;;;3.57;0.90;;;15.50;99.90;;;;;;5079225;28;20180;-39
2022/07/27 00:28:46;;;;;;;6.77;0.97;;;15.40;99.90;;;;;;5076057;28;20195;-40
2022/07/27 00:31:12;;;;;;;7.30;1.23;;;15.50;99.90;;;;;;5075929;28;20306;-39
2022/07/27 00:33:37;;;;;;;2.27;0.77;;;15.50;99.90;;;;;;5076485;28;20209;-38
2022/07/27 00:36:03;;;;;;;2.63;1.40;;;15.40;99.90;;;;;;5076019;28;20262;-38
2022/07/27 00:38:29;;;;;;;1.60;1.00;;;15.40;99.90;;;;;;5074387;28;20266;-43
2022/07/27 00:40:54;;;;;;;4.43;1.13;;;15.40;99.90;;;;;;5075494;28;20200;-42
2022/07/27 00:43:20;;;;;;;1.47;0.90;;;15.40;99.90;;;;;;5075629;28;20257;-43
2022/07/27 00:45:45;;;;;;;7.77;1.00;;;15.40;99.90;;;;;;5075658;28;20301;-43
2022/07/27 00:48:11;;;;;;;1.07;0.70;;;15.40;99.90;;;;;;5075459;28;20176;-43
2022/07/27 00:50:39;;;;;;;3.50;1.17;;;15.40;99.90;;;;;;5075537;28;20670;-43
2022/07/27 00:53:06;;;;;;;2.77;1.07;;;15.30;99.90;;;;;;5074133;28;20179;-43
2022/07/27 00:55:32;;;;;;;3.13;1.20;;;15.30;99.90;;;;;;5075534;28;20175;-44
2022/07/27 00:57:58;;;;;;;3.70;1.00;;;15.30;99.90;;;;;;5073939;28;20647;-43
2022/07/27 01:00:24;;;;;;;2.37;1.90;;;15.30;99.90;;;;;;5075246;28;20248;-44
2022/07/27 01:02:50;;;;;;;3.57;1.10;;;15.30;99.90;;;;;;5073962;28;20183;-44
2022/07/27 01:05:16;;;;;;;2.73;0.80;;;15.30;99.90;;;;;;5074513;28;20283;-43
2022/07/27 01:07:41;;;;;;;2.47;0.93;;;15.20;99.90;;;;;;5075445;28;20179;-44
2022/07/27 01:10:07;;;;;;;2.93;0.80;;;15.20;99.90;;;;;;5075230;28;20215;-42
2022/07/27 01:12:33;;;;;;;1.83;0.80;;;15.20;99.90;;;;;;5075323;28;20647;-43
2022/07/27 01:14:59;;;;;;;2.73;1.13;;;15.20;99.90;;;;;;5075216;28;20179;-43
2022/07/27 01:17:29;;;;;;;1.23;1.00;;;15.20;99.90;;;;;;5075003;28;20180;-41
2022/07/27 01:19:55;;;;;;;3.17;0.97;;;15.20;99.90;;;;;;5075132;28;20219;-43
2022/07/27 01:22:20;;;;;;;2.73;1.00;;;15.20;99.90;;;;;;5074870;28;20184;-43
2022/07/27 01:24:48;;;;;;;5.27;1.30;;;15.20;99.90;;;;;;5074985;28;20210;-42
2022/07/27 01:27:13;;;;;;;2.67;0.90;;;15.10;99.90;;;;;;5075073;28;20183;-41
2022/07/27 01:29:39;;;;;;;2.43;0.80;;;15.20;99.90;;;;;;5074680;28;20207;-41
2022/07/27 01:32:05;;;;;;;1.43;0.90;;;15.10;99.90;;;;;;5074645;28;20175;-42
2022/07/27 01:34:34;;;;;;;2.33;0.90;;;15.10;99.90;;;;;;5074577;28;20686;-42
2022/07/27 01:37:03;;;;;;;3.97;1.20;;;15.10;99.90;;;;;;5074906;28;20182;-43
2022/07/27 01:39:30;;;;;;;3.97;0.83;;;15.10;99.90;;;;;;5074385;28;20179;-41
2022/07/27 01:41:55;;;;;;;4.00;1.10;;;15.00;99.90;;;;;;5074570;28;20206;-42
2022/07/27 01:44:21;;;;;;;2.47;1.10;;;15.00;99.90;;;;;;5074312;28;20179;-42
2022/07/27 01:46:47;;;;;;;3.77;0.97;;;14.90;99.90;;;;;;5072987;28;20209;-42
2022/07/27 01:49:12;;;;;;;3.50;1.10;;;14.80;99.90;;;;;;5074365;28;20176;-43
2022/07/27 01:51:38;;;;;;;3.93;1.20;;;14.80;99.90;;;;;;5072859;28;20620;-43
2022/07/27 01:54:04;;;;;;;3.50;0.90;;;14.80;99.90;;;;;;5074293;28;20567;-43
2022/07/27 01:56:29;;;;;;;1.87;1.00;;;14.70;99.90;;;;;;5074525;28;20179;-42
2022/07/27 01:58:55;;;;;;;2.87;0.87;;;14.60;99.90;;;;;;5074553;28;20640;-42
2022/07/27 02:01:21;;;;;;;4.60;0.80;;;14.60;99.90;;;;;;5074023;28;20199;-42
2022/07/27 02:03:47;;;;;;;3.67;1.20;;;14.50;99.90;;;;;;5073765;28;20199;-43
2022/07/27 02:06:12;;;;;;;4.03;1.60;;;14.40;99.90;;;;;;5074039;28;20229;-43
2022/07/27 02:08:38;;;;;;;2.30;0.90;;;14.30;99.90;;;;;;5073810;28;20611;-42
2022/07/27 02:13:49;;;;;;;2.03;0.70;;;14.20;99.90;;;;;;5073828;28;20666;-42
2022/07/27 02:16:15;;;;;;;4.73;1.30;;;14.20;99.90;;;;;;5071723;28;20550;-41
2022/07/27 02:18:41;;;;;;;2.37;1.07;;;14.10;99.90;;;;;;5073872;28;20168;-43
2022/07/27 02:21:07;;;;;;;5.90;1.47;;;14.00;99.90;;;;;;5073677;28;20261;-42
2022/07/27 02:23:34;;;;;;;4.27;1.23;;;13.90;99.90;;;;;;5073966;28;20191;-38
2022/07/27 02:26:00;;;;;;;2.97;1.30;;;13.90;99.90;;;;;;5073554;28;20187;-40
2022/07/27 02:28:27;;;;;;;5.13;1.53;;;13.90;99.90;;;;;;5073824;28;20262;-39
2022/07/27 02:30:53;;;;;;;2.50;1.10;;;13.80;99.90;;;;;;5073637;28;20211;-39
2022/07/27 02:33:18;;;;;;;3.57;1.20;;;13.80;99.90;;;;;;5073487;28;20270;-39
2022/07/27 02:35:44;;;;;;;5.97;1.47;;;13.70;99.90;;;;;;5073417;28;20171;-40
2022/07/27 02:38:10;;;;;;;2.57;1.10;;;13.60;99.90;;;;;;5073371;28;20187;-39
2022/07/27 02:40:35;;;;;;;3.43;1.27;;;13.60;99.90;;;;;;5073483;28;20222;-39
2022/07/27 02:43:01;;;;;;;4.73;1.30;;;13.60;99.90;;;;;;5073605;28;20558;-38
2022/07/27 02:45:26;;;;;;;5.03;1.50;;;13.50;99.90;;;;;;5073376;28;20603;-41
2022/07/27 02:47:52;;;;;;;3.50;1.50;;;13.50;99.90;;;;;;5073604;28;20179;-41
2022/07/27 02:50:18;;;;;;;4.63;1.53;;;13.40;99.90;;;;;;5073275;28;20207;-39
2022/07/27 02:52:43;;;;;;;3.30;1.30;;;13.40;99.90;;;;;;5073496;28;20183;-40
2022/07/27 02:55:09;;;;;;;4.70;1.37;;;13.40;99.90;;;;;;5073210;28;20218;-40
2022/07/27 02:57:36;;;;;;;5.07;1.40;;;13.30;99.90;;;;;;5073200;28;20187;-38
2022/07/27 03:00:12;;;;;;;5.03;1.57;;;13.30;99.90;;;;;;5071802;28;20240;-39
2022/07/27 03:02:38;;;;;;;3.77;1.30;;;13.20;99.90;;;;;;5073733;28;20246;-38
2022/07/27 03:05:05;;;;;;;4.70;1.77;;;13.20;99.90;;;;;;5072998;28;20607;-40
2022/07/27 03:07:31;;;;;;;5.93;1.67;;;13.10;99.90;;;;;;5073122;28;20175;-39
2022/07/27 03:09:57;;;;;;;6.60;1.37;;;13.10;99.90;;;;;;5071750;28;20213;-41
2022/07/27 03:12:22;;;;;;;1.40;1.13;;;13.10;99.90;;;;;;5073039;28;20183;-41
2022/07/27 03:14:48;;;;;;;3.80;1.57;;;13.10;99.90;;;;;;5073346;28;20295;-41
2022/07/27 03:17:13;;;;;;;2.47;1.10;;;13.10;99.90;;;;;;5073283;28;20188;-41
2022/07/27 03:19:39;;;;;;;2.50;1.23;;;13.00;99.90;;;;;;5073095;28;20214;-39
2022/07/27 03:22:05;;;;;;;1.77;1.30;;;13.00;99.90;;;;;;5073214;28;20176;-40
2022/07/27 03:24:30;;;;;;;3.23;1.40;;;13.00;99.90;;;;;;5073489;28;20293;-39
2022/07/27 03:26:56;;;;;;;1.83;1.10;;;12.90;99.90;;;;;;5073378;28;20324;-41
2022/07/27 03:29:22;;;;;;;4.10;1.13;;;12.90;99.90;;;;;;5076958;28;20228;-41
2022/07/27 03:31:48;;;;;;;1.80;1.10;;;12.90;99.90;;;;;;5076764;28;20223;-40
2022/07/27 03:34:13;;;;;;;2.50;1.00;;;12.80;99.90;;;;;;5076840;28;20183;-40
2022/07/27 03:36:39;;;;;;;1.93;1.10;;;12.80;99.90;;;;;;5076755;28;20636;-40
2022/07/27 03:39:06;;;;;;;4.00;1.20;;;12.80;99.90;;;;;;5077199;28;20643;-41
2022/07/27 03:41:31;;;;;;;2.57;1.30;;;12.70;99.90;;;;;;5075773;28;20704;-41
2022/07/27 03:43:57;;;;;;;1.40;1.10;;;12.60;99.90;;;;;;5076739;28;20182;-39
2022/07/27 03:46:22;;;;;;;1.60;1.00;;;12.60;99.90;;;;;;5075201;28;20257;-40
2022/07/27 03:48:48;;;;;;;3.33;1.13;;;12.60;99.90;;;;;;5076412;28;20211;-40
2022/07/27 03:51:14;;;;;;;2.17;1.20;;;12.50;99.90;;;;;;5075176;28;20215;-39
2022/07/27 03:53:39;;;;;;;1.67;1.10;;;12.40;99.90;;;;;;5076558;28;20180;-39
2022/07/27 03:56:05;;;;;;;2.50;1.00;;;12.40;99.90;;;;;;5076575;28;20623;-40
2022/07/27 03:58:30;;;;;;;5.07;1.43;;;12.30;99.90;;;;;;5076334;28;20183;-39
2022/07/27 04:00:56;;;;;;;1.40;1.10;;;12.30;99.90;;;;;;5076125;28;20265;-39
2022/07/27 04:03:22;;;;;;;1.83;1.10;;;12.30;99.90;;;;;;5076314;28;20199;-38
2022/07/27 04:05:47;;;;;;;1.20;1.10;;;12.30;99.90;;;;;;5078093;28;20636;-40
2022/07/27 04:08:13;;;;;;;4.00;1.30;;;12.20;99.90;;;;;;5077895;28;20199;-38
2022/07/27 04:10:38;;;;;;;2.37;1.20;;;12.20;99.90;;;;;;5076751;28;20210;-40
2022/07/27 04:13:04;;;;;;;4.93;1.47;;;12.20;99.90;;;;;;5076378;28;20187;-39
2022/07/27 04:15:29;;;;;;;3.70;1.50;;;12.20;99.90;;;;;;5077360;28;20184;-39
2022/07/27 04:17:55;;;;;;;2.20;1.23;;;12.10;99.90;;;;;;5076279;28;20183;-40
2022/07/27 04:20:21;;;;;;;1.60;1.20;;;12.10;99.90;;;;;;5076097;28;20211;-40
2022/07/27 04:22:47;;;;;;;3.13;1.17;;;12.00;99.90;;;;;;5076742;28;20262;-40
2022/07/27 04:25:13;;;;;;;1.77;1.10;;;12.00;99.90;;;;;;5076106;28;20229;-40
2022/07/27 04:27:39;;;;;;;2.60;1.20;;;11.90;99.90;;;;;;5076043;28;20187;-38
2022/07/27 04:30:05;;;;;;;3.63;1.50;;;12.00;99.90;;;;;;5075954;28;20567;-40
2022/07/27 04:32:30;;;;;;;4.93;1.40;;;11.90;99.90;;;;;;5075915;28;20614;-38
2022/07/27 04:34:56;;;;;;;3.80;1.27;;;11.90;99.90;;;;;;5075885;28;20184;-40
2022/07/27 04:37:21;;;;;;;1.77;1.10;;;11.90;99.90;;;;;;5075684;28;20183;-40
2022/07/27 04:39:47;;;;;;;1.60;1.30;;;11.80;99.90;;;;;;5074220;28;20353;-40
2022/07/27 04:42:13;;;;;;;4.77;1.73;;;11.80;99.90;;;;;;5075462;28;20191;-37
2022/07/27 04:44:38;;;;;;;3.37;1.37;;;11.90;99.90;;;;;;5075775;28;20244;-39
2022/07/27 04:47:04;;;;;;;1.60;1.20;;;11.80;99.90;;;;;;5076392;28;20190;-40
2022/07/27 04:49:29;;;;;;;2.77;1.70;;;11.80;99.90;;;;;;5075803;28;20244;-40
2022/07/27 04:51:55;;;;;;;2.63;1.40;;;11.80;99.90;;;;;;5075941;28;20163;-40
2022/07/27 04:54:21;;;;;;;3.33;1.63;;;11.80;99.90;;;;;;5075395;28;20203;-39
2022/07/27 04:56:46;;;;;;;2.80;1.50;;;11.90;99.90;;;;;;5075567;28;20658;-38
2022/07/27 04:59:12;;;;;;;2.30;1.53;;;11.90;99.90;;;;;;5075386;28;20192;-38
2022/07/27 05:01:37;;;;;;;2.00;1.63;;;11.90;99.90;;;;;;5075012;28;20218;-40
2022/07/27 05:04:03;;;;;;;2.80;1.57;;;11.90;99.90;;;;;;5075727;28;20195;-40
2022/07/27 05:06:31;;;;;;;3.07;1.60;;;12.00;99.90;;;;;;5075122;28;20192;-40
2022/07/27 05:08:57;;;;;;;2.63;1.47;;;12.00;99.90;;;;;;5075158;28;20204;-40
2022/07/27 05:11:23;;;;;;;2.67;1.60;;;12.00;99.90;;;;;;5074860;28;20246;-41
2022/07/27 05:13:48;;;;;;;4.27;1.67;;;12.10;99.90;;;;;;5073498;28;20191;-38
2022/07/27 05:16:14;;;;;;;4.63;1.70;;;12.10;99.90;;;;;;5074973;28;20191;-40
2022/07/27 05:18:39;;;;;;;6.87;3.13;;;12.10;99.90;;;;;;5074740;28;20546;-38
2022/07/27 05:21:06;;;;;;;5.60;2.37;;;12.20;99.90;;;;;;5075227;28;20211;-39
2022/07/27 05:23:33;;;;;;;3.27;2.30;;;12.20;99.90;;;;;;5074112;28;20195;-39
2022/07/27 05:25:59;;;;;;;4.57;2.30;;;12.30;99.90;;;;;;5074523;28;20183;-40
2022/07/27 05:28:24;;;;;;;3.70;2.60;;;12.40;99.90;;;;;;5074558;28;20187;-38
2022/07/27 05:30:50;;;;;;;4.27;2.43;;;12.50;99.90;;;;;;5075585;28;20207;-38
2022/07/27 05:33:16;;;;;;;4.87;2.73;;;12.50;99.90;;;;;;5074424;28;20606;-40
2022/07/27 05:35:41;;;;;;;4.60;2.70;;;12.60;99.90;;;;;;5074711;28;20187;-39
2022/07/27 05:38:07;;;;;;;4.33;2.67;;;12.80;99.90;;;;;;5074596;28;20187;-39
2022/07/27 05:40:33;;;;;;;3.73;2.63;;;12.80;99.90;;;;;;5074083;28;20552;-38
2022/07/27 05:42:58;;;;;;;3.70;2.67;;;13.00;99.90;;;;;;5074401;28;20187;-40
2022/07/27 05:45:25;;;;;;;9.30;3.47;;;13.10;99.90;;;;;;5074447;28;20249;-40
2022/07/27 05:47:51;;;;;;;6.40;4.30;;;13.20;99.90;;;;;;5074451;28;20187;-39
2022/07/27 05:50:16;;;;;;;7.93;4.90;;;13.30;99.90;;;;;;5074278;28;20211;-39
2022/07/27 05:52:43;;;;;;;9.37;4.03;;;13.30;99.90;;;;;;5074423;28;20207;-42
2022/07/27 05:55:09;;;;;;;13.13;4.10;;;13.50;99.90;;;;;;5074395;28;20270;-39
2022/07/27 05:57:36;;;;;;;8.33;2.97;;;13.50;99.90;;;;;;5074153;28;20184;-41
2022/07/27 06:00:04;;;;;;;4.20;2.30;;;13.60;99.90;;;;;;5074068;28;20212;-39
2022/07/27 06:02:30;;;;;;;6.43;2.80;;;13.70;99.90;;;;;;5074619;28;20176;-41
2022/07/27 06:04:56;;;;;;;5.13;2.53;;;13.80;99.90;;;;;;5073781;28;20245;-39
2022/07/27 06:10:06;;;;;;;6.17;2.53;;;14.00;99.90;;;;;;5074199;28;20252;-38
2022/07/27 06:12:39;;;;;;;7.77;3.20;;;14.10;99.90;;;;;;5072520;28;20206;-39
2022/07/27 06:15:06;;;;;;;8.10;2.90;;;14.20;99.90;;;;;;5073713;28;20187;-40
2022/07/27 06:17:32;;;;;;;7.30;3.20;;;14.30;99.90;;;;;;5074227;28;20187;-40
2022/07/27 06:19:57;;;;;;;4.63;2.93;;;14.30;99.90;;;;;;5073540;28;20556;-41
2022/07/27 06:22:23;;;;;;;9.60;3.40;;;14.40;99.90;;;;;;5073967;28;20535;-39
2022/07/27 06:24:48;;;;;;;6.03;2.73;;;14.50;99.90;;;;;;5072409;28;20232;-39
2022/07/27 06:27:14;;;;;;;5.40;3.00;;;14.60;99.90;;;;;;5073656;28;20171;-39
2022/07/27 06:29:40;;;;;;;5.70;3.17;;;14.70;99.90;;;;;;5074858;28;20687;-39
2022/07/27 06:32:05;;;;;;;5.57;2.73;;;14.80;99.90;;;;;;5073903;28;20543;-38
2022/07/27 06:34:31;;;;;;;6.53;3.03;;;14.90;99.90;;;;;;5074003;28;20182;-41
2022/07/27 06:36:58;;;;;;;4.97;1.97;;;15.00;99.90;;;;;;5073755;28;20187;-40
2022/07/27 06:39:25;;;;;;;3.70;1.70;;;15.20;99.90;;;;;;5073398;28;20168;-40
2022/07/27 06:41:50;;;;;;;5.77;1.53;;;15.30;99.90;;;;;;5073418;28;20762;-41
2022/07/27 06:44:16;;;;;;;1.43;1.00;;;15.40;99.90;;;;;;5073538;28;20191;-37
2022/07/27 06:46:42;;;;;;;5.63;1.60;;;15.50;99.90;;;;;;5073619;28;20198;-38
2022/07/27 06:49:07;;;;;;;2.63;1.10;;;15.70;99.90;;;;;;5074909;28;20179;-38
2022/07/27 06:51:33;;;;;;;3.30;0.80;;;15.70;99.90;;;;;;5076037;28;20530;-40
2022/07/27 06:53:59;;;;;;;3.93;0.90;;;15.80;99.90;;;;;;5075032;28;20187;-40
2022/07/27 06:56:24;;;;;;;5.53;0.90;;;15.90;99.90;;;;;;5073206;28;20535;-41
2022/07/27 06:58:50;;;;;;;4.47;1.00;;;16.10;99.90;;;;;;5073593;28;20260;-40
2022/07/27 07:01:16;;;;;;;2.73;0.87;;;16.10;99.90;;;;;;5073461;28;20215;-40
2022/07/27 07:03:42;;;;;;;3.07;0.70;;;16.20;99.90;;;;;;5076486;28;20777;-40
2022/07/27 07:06:08;;;;;;;1.30;0.80;;;16.20;99.90;;;;;;5077721;28;20243;-40
2022/07/27 07:08:34;;;;;;;2.50;1.00;;;16.30;99.90;;;;;;5077411;28;20210;-40
2022/07/27 07:11:00;;;;;;;3.67;0.90;;;16.30;99.90;;;;;;5076005;28;20695;-39
2022/07/27 07:13:26;;;;;;;5.70;1.10;;;16.50;99.90;;;;;;5077310;28;20179;-40
2022/07/27 07:15:52;;;;;;;4.63;1.00;;;16.70;99.90;;;;;;5077491;28;20190;-40
2022/07/27 07:18:17;;;;;;;1.17;0.73;;;16.80;99.90;;;;;;5075963;28;20184;-40
2022/07/27 07:20:43;;;;;;;2.93;0.93;;;16.90;99.90;;;;;;5076984;28;20214;-41
2022/07/27 07:23:09;;;;;;;0.93;0.70;;;17.00;99.90;;;;;;5077259;28;20183;-39
2022/07/27 07:25:36;;;;;;;2.47;0.70;;;17.20;99.90;;;;;;5077033;28;20635;-40
2022/07/27 07:28:02;;;;;;;3.40;0.90;;;17.30;99.90;;;;;;5076888;28;20226;-40
2022/07/27 07:30:28;;;;;;;6.57;1.07;;;17.20;99.90;;;;;;5077225;28;20195;-39
2022/07/27 07:32:54;;;;;;;4.10;0.80;;;17.10;99.90;;;;;;5076902;28;20180;-40
2022/07/27 07:35:19;;;;;;;1.97;0.73;;;17.10;99.90;;;;;;5077598;28;20188;-44
2022/07/27 07:37:45;;;;;;;5.90;1.00;;;17.10;99.90;;;;;;5079660;28;20189;-44
2022/07/27 07:40:11;;;;;;;3.73;1.00;;;17.20;99.90;;;;;;5079379;28;20218;-43
2022/07/27 07:42:54;;;;;;;2.30;0.83;;;17.20;99.90;;;;;;5079551;28;20171;-43
2022/07/27 07:45:21;;;;;;;2.63;0.90;;;17.30;99.90;;;;;;5078920;28;20250;-43
2022/07/27 07:47:47;;;;;;;2.47;1.00;;;17.30;99.90;;;;;;5079153;28;20172;-43
2022/07/27 07:50:13;;;;;;;1.97;0.77;;;17.40;99.90;;;;;;5078549;28;20203;-44
2022/07/27 07:52:38;;;;;;;2.13;0.90;;;17.50;99.90;;;;;;5078117;28;20191;-44
2022/07/27 07:55:04;;;;;;;4.10;1.20;;;17.50;99.90;;;;;;5078242;28;20187;-44
2022/07/27 07:57:30;;;;;;;4.30;1.00;;;17.40;99.90;;;;;;5077939;28;20593;-42
2022/07/27 07:59:55;;;;;;;3.33;0.70;;;17.40;99.90;;;;;;5077815;28;20213;-44
2022/07/27 08:02:21;;;;;;;2.90;0.90;;;17.50;99.90;;;;;;5077707;28;20628;-43
2022/07/27 08:04:47;;;;;;;2.13;0.80;;;17.50;99.90;;;;;;5077558;28;20223;-43
2022/07/27 08:07:12;;;;;;;2.70;0.97;;;17.50;99.90;;;;;;5079746;28;20184;-43
2022/07/27 08:09:38;;;;;;;3.57;1.07;;;17.40;99.90;;;;;;5077799;28;20195;-43
2022/07/27 08:12:05;;;;;;;1.73;0.73;;;17.40;99.90;;;;;;5077537;28;20198;-43
2022/07/27 08:14:31;;;;;;;2.50;0.77;;;17.40;99.90;;;;;;5077675;28;20201;-43
2022/07/27 08:16:56;;;;;;;1.90;0.70;;;17.40;99.90;;;;;;5077075;28;20691;-43
2022/07/27 08:19:22;;;;;;;5.53;0.73;;;17.40;99.90;;;;;;5077327;28;20194;-43
2022/07/27 08:21:47;;;;;;;2.37;0.80;;;17.30;99.90;;;;;;5077321;28;20207;-43
2022/07/27 08:24:13;;;;;;;3.93;1.20;;;17.40;99.90;;;;;;5077062;28;20632;-43
2022/07/27 08:26:38;;;;;;;1.67;0.60;;;17.40;99.90;;;;;;5077179;28;20597;-43
2022/07/27 08:29:04;;;;;;;2.17;0.83;;;17.50;99.90;;;;;;5077516;28;20218;-42
2022/07/27 08:31:30;;;;;;;1.47;0.70;;;17.50;99.90;;;;;;5076948;28;20202;-40
2022/07/27 08:33:55;;;;;;;3.10;0.67;;;17.50;99.90;;;;;;5077253;28;20592;-42
2022/07/27 08:36:21;;;;;;;2.47;0.80;;;17.40;99.90;;;;;;5077056;28;20240;-43
2022/07/27 08:38:46;;;;;;;3.00;1.23;;;17.50;99.90;;;;;;5077619;28;20683;-43
2022/07/27 08:41:14;;;;;;;2.23;1.00;;;17.50;99.90;;;;;;5075574;28;20225;-41
2022/07/27 08:43:41;;;;;;;2.70;0.70;;;17.70;99.90;;;;;;5075824;28;20206;-39
2022/07/27 08:46:10;;;;;;;5.03;0.90;;;17.70;99.90;;;;;;5075680;28;20511;-39
2022/07/27 08:48:38;;;;;;;3.07;1.13;;;17.80;99.90;;;;;;5075560;28;20282;-40
2022/07/27 08:51:06;;;;;;;2.93;0.67;;;17.90;99.90;;;;;;5075340;28;20683;-41
2022/07/27 08:53:33;;;;;;;1.13;0.47;;;17.80;99.90;;;;;;5075891;28;20187;-40
2022/07/27 08:55:59;;;;;;;2.57;0.67;;;17.90;99.90;;;;;;5075763;28;20590;-40
2022/07/27 08:58:25;;;;;;;4.90;0.60;;;18.00;99.90;;;;;;5076559;28;20215;-41
2022/07/27 09:00:51;;;;;;;0.70;0.50;;;18.00;99.90;;;;;;5076035;28;20203;-40
2022/07/27 09:03:19;;;;;;;1.87;0.60;;;18.10;99.90;;;;;;5075046;28;20179;-40
2022/07/27 09:05:51;;;;;;;2.73;0.87;;;18.10;99.90;;;;;;5075930;28;20171;-38
2022/07/27 09:08:23;;;;;;;1.63;0.70;;;18.20;99.90;;;;;;5074519;28;20217;-38
2022/07/27 09:10:49;;;;;;;1.00;0.60;;;18.50;99.90;;;;;;5075571;28;20583;-39
2022/07/27 09:13:29;;;;;;;1.27;0.50;;;18.70;99.90;;;;;;5073795;28;20187;-40
2022/07/27 09:16:03;;;;;;;7.57;0.67;;;18.90;99.90;;;;;;5075092;28;20174;-39
2022/07/27 09:18:30;;;;;;;3.33;0.60;;;18.90;99.90;;;;;;5075179;28;20199;-40
2022/07/27 09:21:16;;;;;;;1.80;0.60;;;18.80;99.90;;;;;;5074969;28;20235;-40
2022/07/27 09:24:09;;;;;;;1.83;0.70;;;18.70;99.90;;;;;;5074990;28;20186;-40
2022/07/27 09:26:35;;;;;;;2.97;0.83;;;18.70;99.90;;;;;;5074693;28;20508;-40
2022/07/27 09:29:07;;;;;;;2.30;0.83;;;18.80;99.90;;;;;;5075188;28;20179;-40
2022/07/27 09:31:41;;;;;;;2.33;0.70;;;18.80;99.90;;;;;;5074568;28;20200;-39
2022/07/27 09:34:07;;;;;;;2.73;0.70;;;18.90;99.90;;;;;;5074758;28;20159;-39
2022/07/27 09:36:32;;;;;;;4.70;0.70;;;18.90;99.90;;;;;;5074762;28;20206;-40
2022/07/27 09:39:06;;;;;;;1.87;0.60;;;18.90;99.90;;;;;;5074426;28;20304;-41
2022/07/27 09:41:52;;;;;;;3.13;0.70;;;18.90;99.90;;;;;;5074272;28;20631;-40
2022/07/27 09:44:35;;;;;;;3.43;1.10;;;19.00;99.90;;;;;;5074768;28;20160;-40
2022/07/27 09:50:24;;;;;;;1.50;0.60;;;19.00;99.90;;;;;;5074383;28;20564;-40
2022/07/27 09:52:49;;;;;;;1.80;0.90;;;19.10;99.90;;;;;;5074443;28;20294;-40
2022/07/27 09:55:19;;;;;;;3.90;0.80;;;19.10;99.90;;;;;;5074181;28;20655;-40
2022/07/27 09:57:55;;;;;;;2.53;0.70;;;19.00;99.90;;;;;;5074366;28;20176;-40
2022/07/27 10:00:21;;;;;;;1.43;0.50;;;19.00;99.90;;;;;;5073463;28;20731;-40
2022/07/27 10:02:49;;;;;;;2.43;0.70;;;19.00;99.90;;;;;;5075239;28;20175;-41
2022/07/27 10:05:18;;;;;;;4.10;0.77;;;19.10;99.90;;;;;;5074839;28;20639;-40
2022/07/27 10:07:44;;;;;;;4.77;0.80;;;19.20;99.90;;;;;;5075065;28;20186;-40
2022/07/27 10:10:13;;;;;;;6.03;1.53;;;19.20;99.90;;;;;;5074909;28;20203;-43
2022/07/27 10:12:39;;;;;;;1.17;0.60;;;19.30;99.90;;;;;;5073871;28;20188;-43
2022/07/27 10:15:05;;;;;;;1.97;0.60;;;19.30;99.90;;;;;;5073983;28;20179;-44
2022/07/27 10:17:31;;;;;;;4.53;0.90;;;19.30;99.90;;;;;;5073973;28;20274;-44
2022/07/27 10:19:57;;;;;;;3.70;1.23;;;19.20;99.90;;;;;;5073839;28;20238;-43
2022/07/27 10:22:48;;;;;;;4.10;0.63;;;19.20;99.90;;;;;;5074056;28;20226;-42
2022/07/27 10:25:14;;;;;;;1.43;0.60;;;19.20;99.90;;;;;;5074439;28;20271;-43
2022/07/27 10:27:39;;;;;;;1.57;0.60;;;19.30;99.90;;;;;;5073687;28;20207;-43
2022/07/27 10:30:05;;;;;;;4.17;0.70;;;19.40;99.90;;;;;;5072360;28;20203;-44
2022/07/27 10:32:32;;;;;;;1.20;0.60;;;19.40;99.90;;;;;;5074597;28;20187;-42
2022/07/27 10:35:00;;;;;;;1.53;0.70;;;19.50;99.90;;;;;;5073682;28;20673;-44
2022/07/27 10:37:30;;;;;;;2.73;0.70;;;19.60;99.90;;;;;;5073333;28;20317;-43
2022/07/27 10:42:49;;;;;;;4.93;0.73;;;19.70;99.90;;;;;;5077047;28;20163;-43
2022/07/27 10:45:16;;;;;;;3.70;1.13;;;19.90;99.90;;;;;;5073930;28;20171;-43
2022/07/27 10:47:50;;;;;;;3.43;0.70;;;20.00;99.90;;;;;;5073854;28;20179;-43
2022/07/27 10:50:15;;;;;;;8.27;1.00;;;20.00;99.90;;;;;;5073422;28;20208;-42
2022/07/27 10:52:49;;;;;;;1.90;0.60;;;19.90;99.90;;;;;;5073745;28;20183;-43
2022/07/27 10:55:30;;;;;;;2.33;0.60;;;20.00;99.90;;;;;;5073453;28;20174;-42
2022/07/27 10:58:13;;;;;;;1.10;0.50;;;20.10;99.90;;;;;;5073703;28;20542;-44
2022/07/27 11:00:48;;;;;;;2.63;0.77;;;20.20;99.90;;;;;;5073402;28;20206;-43
2022/07/27 11:03:26;;;;;;;2.07;0.70;;;20.10;99.90;;;;;;5073481;28;20254;-44
2022/07/27 11:06:21;;;;;;;1.47;0.53;;;20.20;99.90;;;;;;5073626;28;20159;-42
2022/07/27 11:08:48;;;;;;;2.03;0.80;;;20.20;99.90;;;;;;5078286;28;20152;-42
2022/07/27 11:11:19;;;;;;;1.23;0.60;;;20.20;99.90;;;;;;5073917;28;20211;-42
2022/07/27 11:13:48;;;;;;;1.50;0.63;;;20.40;99.90;;;;;;5073442;28;20251;-41
2022/07/27 11:16:18;;;;;;;1.23;0.70;;;20.50;99.90;;;;;;5073510;28;20526;-43
2022/07/27 11:18:52;;;;;;;2.23;0.73;;;20.60;99.90;;;;;;5074062;28;20182;-43
2022/07/27 11:21:18;;;;;;;7.33;0.60;;;20.80;99.90;;;;;;5073285;28;20235;-44
2022/07/27 11:23:46;;;;;;;2.40;0.60;;;20.90;99.90;;;;;;5073275;28;20179;-43
2022/07/27 11:26:12;;;;;;;4.50;0.70;;;21.10;99.90;;;;;;5073377;28;20180;-44
2022/07/27 11:28:38;;;;;;;1.03;0.47;;;21.30;99.90;;;;;;5073543;28;20714;-43
2022/07/27 11:31:06;;;;;;;1.23;0.40;;;21.60;99.90;;;;;;5073093;28;20547;-43
2022/07/27 11:33:32;;;;;;;1.83;0.60;;;21.80;99.90;;;;;;5073135;28;20623;-46
2022/07/27 11:36:04;;;;;;;1.10;0.50;;;22.00;99.90;;;;;;5071884;28;20179;-43
2022/07/27 11:38:46;;;;;;;4.53;0.97;;;22.00;99.90;;;;;;5073054;28;20237;-43
2022/07/27 11:41:21;;;;;;;0.50;0.40;;;22.00;99.90;;;;;;5073199;28;20212;-44
2022/07/27 11:43:46;;;;;;;1.23;0.60;;;21.90;99.90;;;;;;5073706;28;20528;-43
2022/07/27 11:46:15;;;;;;;0.60;0.50;;;21.90;99.90;;;;;;5073354;28;20180;-43
2022/07/27 11:48:49;;;;;;;3.57;0.60;;;21.70;99.90;;;;;;5074379;28;20201;-44
2022/07/27 11:51:16;;;;;;;3.83;0.70;;;21.50;99.90;;;;;;5077029;28;20227;-45
2022/07/27 11:53:41;;;;;;;0.77;0.70;;;21.30;99.90;;;;;;5076950;28;20182;-43
2022/07/27 11:56:07;;;;;;;2.10;0.80;;;21.10;99.90;;;;;;5077321;28;20176;-43
2022/07/27 11:58:53;;;;;;;1.00;0.70;;;21.20;99.90;;;;;;5076915;28;20510;-42
2022/07/27 12:01:32;;;;;;;1.87;0.70;;;21.00;99.90;;;;;;5080045;28;20219;-43
2022/07/27 12:04:05;;;;;;;2.10;0.73;;;20.90;99.90;;;;;;5076534;28;20274;-43
2022/07/27 12:06:33;;;;;;;1.83;0.60;;;21.00;99.90;;;;;;5076902;28;20187;-42
2022/07/27 12:09:04;;;;;;;3.03;0.63;;;21.00;99.90;;;;;;5077032;28;20184;-43
2022/07/27 12:11:44;;;;;;;3.03;0.80;;;21.10;99.90;;;;;;5076762;28;20231;-43
2022/07/27 12:14:13;;;;;;;1.33;0.80;;;21.20;99.90;;;;;;5076654;28;20171;-43
2022/07/27 12:16:39;;;;;;;3.17;0.67;;;21.10;99.90;;;;;;5076248;28;20195;-43
2022/07/27 12:19:05;;;;;;;2.27;0.70;;;21.00;99.90;;;;;;5076274;28;20190;-43
2022/07/27 12:21:31;;;;;;;1.47;0.70;;;21.10;99.90;;;;;;5076177;28;20211;-42
2022/07/27 12:23:57;;;;;;;1.20;0.73;;;21.10;99.90;;;;;;5076177;28;20584;-42
2022/07/27 12:26:26;;;;;;;2.33;0.70;;;21.30;99.90;;;;;;5076157;28;20225;-42
2022/07/27 12:29:09;;;;;;;1.20;0.90;;;21.30;99.90;;;;;;5076100;28;20176;-42
2022/07/27 12:31:36;;;;;;;3.00;0.93;;;21.30;99.90;;;;;;5076052;28;20203;-42
2022/07/27 12:34:05;;;;;;;1.30;0.53;;;21.20;99.90;;;;;;5075915;28;20712;-43
2022/07/27 12:36:31;;;;;;;1.13;0.60;;;21.10;99.90;;;;;;5074677;28;20195;-43
2022/07/27 12:38:58;;;;;;;2.37;0.67;;;21.00;99.90;;;;;;5075730;28;20180;-43
2022/07/27 12:41:31;;;;;;;1.90;0.80;;;21.10;99.90;;;;;;5074556;28;20211;-43
2022/07/27 12:44:16;;;;;;;1.37;0.50;;;21.20;99.90;;;;;;5074754;28;20687;-44
2022/07/27 12:47:00;;;;;;;3.07;0.80;;;21.40;99.90;;;;;;5076269;28;20168;-42
2022/07/27 12:49:33;;;;;;;2.63;0.50;;;21.60;99.90;;;;;;5076026;28;20164;-42
2022/07/27 12:52:06;;;;;;;4.73;0.60;;;21.90;99.90;;;;;;5076198;28;20541;-43
2022/07/27 12:54:32;;;;;;;0.80;0.60;;;22.40;99.90;;;;;;5076610;28;20237;-43
2022/07/27 12:56:57;;;;;;;1.27;0.60;;;22.40;97.20;;;;;;5075997;28;20183;-43
2022/07/27 12:59:23;;;;;;;0.97;0.50;;;22.40;99.10;;;;;;5076526;28;20179;-43
2022/07/27 13:01:50;;;;;;;0.83;0.43;;;22.20;98.80;;;;;;5075958;28;20215;-41